sensor_id;sensor_type;location;lat;lon;timestamp;pressure;altitude;pressure_sealevel;temperature;humidity
40171;BME280;37650;52.790;18.268;2023-01-20T00:02:24;99971.08;;;-1.23;100.00
40171;BME280;37650;52.790;18.268;2023-01-20T00:05:52;99977.60;;;-1.26;100.00
40171;BME280;37650;52.790;18.268;2023-01-20T00:09:15;99981.20;;;-1.32;100.00
40171;BME280;37650;52.790;18.268;2023-01-20T00:12:37;99981.00;;;-1.37;100.00
40171;BME280;37650;52.790;18.268;2023-01-20T00:15:58;99976.84;;;-1.42;100.00
40171;BME280;37650;52.790;18.268;2023-01-20T00:19:22;99973.91;;;-1.45;100.00
40171;BME280;37650;52.790;18.268;2023-01-20T00:22:43;99982.52;;;-1.44;100.00
40171;BME280;37650;52.790;18.268;2023-01-20T00:26:06;99986.83;;;-1.41;100.00
40171;BME280;37650;52.790;18.268;2023-01-20T00:29:28;99987.34;;;-1.38;100.00
40171;BME280;37650;52.790;18.268;2023-01-20T00:32:49;99991.64;;;-1.41;100.00
40171;BME280;37650;52.790;18.268;2023-01-20T00:36:13;100001.58;;;-1.49;100.00
40171;BME280;37650;52.790;18.268;2023-01-20T00:39:35;100006.91;;;-1.49;100.00
40171;BME280;37650;52.790;18.268;2023-01-20T00:42:56;100006.60;;;-1.46;100.00
40171;BME280;37650;52.790;18.268;2023-01-20T00:46:17;99999.55;;;-1.45;100.00
40171;BME280;37650;52.790;18.268;2023-01-20T00:49:39;99997.30;;;-1.45;100.00
40171;BME280;37650;52.790;18.268;2023-01-20T00:53:00;100002.25;;;-1.53;100.00
40171;BME280;37650;52.790;18.268;2023-01-20T00:56:21;100009.98;;;-1.57;100.00
40171;BME280;37650;52.790;18.268;2023-01-20T00:59:42;100008.95;;;-1.56;100.00
40171;BME280;37650;52.790;18.268;2023-01-20T01:03:04;100011.02;;;-1.54;100.00
40171;BME280;37650;52.790;18.268;2023-01-20T01:06:25;100017.23;;;-1.51;100.00
40171;BME280;37650;52.790;18.268;2023-01-20T01:09:47;100014.85;;;-1.46;100.00
40171;BME280;37650;52.790;18.268;2023-01-20T01:13:09;100010.19;;;-1.47;100.00
40171;BME280;37650;52.790;18.268;2023-01-20T01:16:30;100014.67;;;-1.47;100.00
40171;BME280;37650;52.790;18.268;2023-01-20T01:19:52;100022.25;;;-1.45;100.00
40171;BME280;37650;52.790;18.268;2023-01-20T01:23:13;100026.55;;;-1.43;100.00
40171;BME280;37650;52.790;18.268;2023-01-20T01:26:35;100028.61;;;-1.45;100.00
40171;BME280;37650;52.790;18.268;2023-01-20T01:29:56;100020.51;;;-1.48;100.00
40171;BME280;37650;52.790;18.268;2023-01-20T01:33:17;100025.15;;;-1.50;100.00
40171;BME280;37650;52.790;18.268;2023-01-20T01:36:39;100025.30;;;-1.53;100.00
40171;BME280;37650;52.790;18.268;2023-01-20T01:40:00;100020.46;;;-1.55;100.00
40171;BME280;37650;52.790;18.268;2023-01-20T01:43:28;100028.02;;;-1.57;100.00
40171;BME280;37650;52.790;18.268;2023-01-20T01:46:50;100032.65;;;-1.60;100.00
40171;BME280;37650;52.790;18.268;2023-01-20T01:50:20;100031.77;;;-1.62;100.00
40171;BME280;37650;52.790;18.268;2023-01-20T01:53:46;100034.17;;;-1.63;100.00
40171;BME280;37650;52.790;18.268;2023-01-20T01:57:08;100034.20;;;-1.60;100.00
40171;BME280;37650;52.790;18.268;2023-01-20T02:00:30;100043.65;;;-1.62;100.00
40171;BME280;37650;52.790;18.268;2023-01-20T02:04:24;100050.87;;;-1.62;100.00
40171;BME280;37650;52.790;18.268;2023-01-20T02:07:46;100056.75;;;-1.58;100.00
40171;BME280;37650;52.790;18.268;2023-01-20T02:11:09;100063.77;;;-1.60;100.00
40171;BME280;37650;52.790;18.268;2023-01-20T02:14:33;100069.59;;;-1.64;100.00
40171;BME280;37650;52.790;18.268;2023-01-20T02:18:21;100076.23;;;-1.73;100.00
40171;BME280;37650;52.790;18.268;2023-01-20T02:22:01;100083.27;;;-1.76;100.00
40171;BME280;37650;52.790;18.268;2023-01-20T02:33:12;100095.27;;;-1.81;100.00
40171;BME280;37650;52.790;18.268;2023-01-20T02:36:52;100099.77;;;-1.76;100.00
40171;BME280;37650;52.790;18.268;2023-01-20T02:40:32;100102.08;;;-1.67;100.00
40171;BME280;37650;52.790;18.268;2023-01-20T02:44:18;100098.40;;;-1.55;100.00
40171;BME280;37650;52.790;18.268;2023-01-20T02:47:52;100097.23;;;-1.51;100.00
40171;BME280;37650;52.790;18.268;2023-01-20T02:51:21;100090.00;;;-1.50;100.00
40171;BME280;37650;52.790;18.268;2023-01-20T02:54:51;100089.15;;;-1.50;100.00
40171;BME280;37650;52.790;18.268;2023-01-20T02:58:18;100084.83;;;-1.51;100.00
40171;BME280;37650;52.790;18.268;2023-01-20T03:01:50;100085.36;;;-1.48;100.00
40171;BME280;37650;52.790;18.268;2023-01-20T03:05:17;100083.84;;;-1.44;100.00
40171;BME280;37650;52.790;18.268;2023-01-20T03:08:40;100084.20;;;-1.42;100.00
40171;BME280;37650;52.790;18.268;2023-01-20T03:12:08;100087.64;;;-1.43;100.00
40171;BME280;37650;52.790;18.268;2023-01-20T03:15:52;100093.27;;;-1.49;100.00
40171;BME280;37650;52.790;18.268;2023-01-20T03:19:16;100094.27;;;-1.54;100.00
40171;BME280;37650;52.790;18.268;2023-01-20T03:22:39;100095.51;;;-1.51;100.00
40171;BME280;37650;52.790;18.268;2023-01-20T03:26:08;100091.21;;;-1.48;100.00
40171;BME280;37650;52.790;18.268;2023-01-20T03:29:29;100089.36;;;-1.44;100.00
40171;BME280;37650;52.790;18.268;2023-01-20T03:32:51;100093.52;;;-1.39;100.00
40171;BME280;37650;52.790;18.268;2023-01-20T03:36:14;100100.06;;;-1.39;100.00
40171;BME280;37650;52.790;18.268;2023-01-20T03:39:37;100106.92;;;-1.41;100.00
40171;BME280;37650;52.790;18.268;2023-01-20T03:43:11;100112.23;;;-1.44;100.00
40171;BME280;37650;52.790;18.268;2023-01-20T03:46:51;100108.80;;;-1.43;100.00
40171;BME280;37650;52.790;18.268;2023-01-20T03:54:17;100122.20;;;-1.46;100.00
40171;BME280;37650;52.790;18.268;2023-01-20T03:58:06;100133.05;;;-1.44;100.00
40171;BME280;37650;52.790;18.268;2023-01-20T04:01:35;100133.61;;;-1.40;100.00
40171;BME280;37650;52.790;18.268;2023-01-20T04:04:59;100139.45;;;-1.40;100.00
40171;BME280;37650;52.790;18.268;2023-01-20T04:08:24;100141.86;;;-1.40;100.00
40171;BME280;37650;52.790;18.268;2023-01-20T04:11:48;100143.20;;;-1.45;100.00
40171;BME280;37650;52.790;18.268;2023-01-20T04:15:09;100152.30;;;-1.47;100.00
40171;BME280;37650;52.790;18.268;2023-01-20T04:18:31;100161.23;;;-1.49;100.00
40171;BME280;37650;52.790;18.268;2023-01-20T04:25:30;100174.30;;;-1.49;100.00
40171;BME280;37650;52.790;18.268;2023-01-20T04:28:52;100178.91;;;-1.54;100.00
40171;BME280;37650;52.790;18.268;2023-01-20T04:32:13;100184.03;;;-1.58;100.00
40171;BME280;37650;52.790;18.268;2023-01-20T04:35:34;100181.44;;;-1.58;100.00
40171;BME280;37650;52.790;18.268;2023-01-20T04:38:56;100177.48;;;-1.61;100.00
40171;BME280;37650;52.790;18.268;2023-01-20T04:42:17;100182.73;;;-1.68;100.00
40171;BME280;37650;52.790;18.268;2023-01-20T04:45:40;100188.39;;;-1.71;100.00
40171;BME280;37650;52.790;18.268;2023-01-20T04:49:01;100192.34;;;-1.70;100.00
40171;BME280;37650;52.790;18.268;2023-01-20T04:52:23;100202.69;;;-1.67;100.00
40171;BME280;37650;52.790;18.268;2023-01-20T04:55:44;100210.43;;;-1.67;100.00
40171;BME280;37650;52.790;18.268;2023-01-20T04:59:06;100210.04;;;-1.74;100.00
40171;BME280;37650;52.790;18.268;2023-01-20T05:02:27;100208.40;;;-1.81;100.00
40171;BME280;37650;52.790;18.268;2023-01-20T05:05:54;100203.91;;;-1.84;100.00
40171;BME280;37650;52.790;18.268;2023-01-20T05:09:15;100203.87;;;-1.88;100.00
40171;BME280;37650;52.790;18.268;2023-01-20T05:12:37;100214.88;;;-1.87;100.00
40171;BME280;37650;52.790;18.268;2023-01-20T05:15:58;100225.23;;;-1.84;100.00
40171;BME280;37650;52.790;18.268;2023-01-20T05:19:20;100230.18;;;-1.87;100.00
40171;BME280;37650;52.790;18.268;2023-01-20T05:22:41;100236.05;;;-1.85;100.00
40171;BME280;37650;52.790;18.268;2023-01-20T05:26:02;100245.09;;;-1.92;100.00
40171;BME280;37650;52.790;18.268;2023-01-20T05:29:24;100250.14;;;-2.01;100.00
40171;BME280;37650;52.790;18.268;2023-01-20T05:32:45;100257.27;;;-2.08;100.00
40171;BME280;37650;52.790;18.268;2023-01-20T05:36:10;100258.85;;;-2.06;100.00
40171;BME280;37650;52.790;18.268;2023-01-20T05:39:31;100253.19;;;-2.05;100.00
40171;BME280;37650;52.790;18.268;2023-01-20T05:42:53;100256.60;;;-2.06;100.00
40171;BME280;37650;52.790;18.268;2023-01-20T05:46:14;100261.36;;;-2.12;100.00
40171;BME280;37650;52.790;18.268;2023-01-20T05:49:35;100268.71;;;-2.14;100.00
40171;BME280;37650;52.790;18.268;2023-01-20T05:52:57;100269.58;;;-2.14;100.00
40171;BME280;37650;52.790;18.268;2023-01-20T05:56:18;100271.24;;;-2.04;100.00
40171;BME280;37650;52.790;18.268;2023-01-20T05:59:39;100277.38;;;-1.94;100.00
40171;BME280;37650;52.790;18.268;2023-01-20T06:03:02;100274.67;;;-1.90;100.00
40171;BME280;37650;52.790;18.268;2023-01-20T06:06:24;100276.60;;;-1.88;100.00
40171;BME280;37650;52.790;18.268;2023-01-20T06:09:45;100284.86;;;-1.87;100.00
40171;BME280;37650;52.790;18.268;2023-01-20T06:13:07;100283.76;;;-1.91;100.00
40171;BME280;37650;52.790;18.268;2023-01-20T06:16:27;100283.41;;;-1.92;100.00
40171;BME280;37650;52.790;18.268;2023-01-20T06:19:49;100295.69;;;-1.87;100.00
40171;BME280;37650;52.790;18.268;2023-01-20T06:23:11;100302.30;;;-1.80;100.00
40171;BME280;37650;52.790;18.268;2023-01-20T06:26:32;100309.21;;;-1.78;100.00
40171;BME280;37650;52.790;18.268;2023-01-20T06:29:53;100322.32;;;-1.74;100.00
40171;BME280;37650;52.790;18.268;2023-01-20T20:23:09;101091.73;;;-1.70;100.00
40171;BME280;37650;52.790;18.268;2023-01-20T20:26:35;101093.75;;;-1.64;100.00
40171;BME280;37650;52.790;18.268;2023-01-20T20:29:59;101097.52;;;-1.58;100.00
40171;BME280;37650;52.790;18.268;2023-01-20T20:33:23;101100.48;;;-1.49;100.00
40171;BME280;37650;52.790;18.268;2023-01-20T20:36:46;101107.44;;;-1.39;100.00
40171;BME280;37650;52.790;18.268;2023-01-20T20:40:09;101109.07;;;-1.27;100.00
40171;BME280;37650;52.790;18.268;2023-01-20T20:43:31;101111.35;;;-1.17;100.00
40171;BME280;37650;52.790;18.268;2023-01-20T20:46:56;101113.54;;;-1.12;100.00
40171;BME280;37650;52.790;18.268;2023-01-20T20:50:18;101116.73;;;-1.07;100.00
40171;BME280;37650;52.790;18.268;2023-01-20T20:53:42;101117.34;;;-1.03;100.00
40171;BME280;37650;52.790;18.268;2023-01-20T20:57:05;101117.84;;;-0.96;100.00
40171;BME280;37650;52.790;18.268;2023-01-20T21:00:28;101117.53;;;-0.94;100.00
40171;BME280;37650;52.790;18.268;2023-01-20T21:03:51;101113.90;;;-0.95;100.00
40171;BME280;37650;52.790;18.268;2023-01-20T21:07:12;101105.79;;;-0.95;100.00
40171;BME280;37650;52.790;18.268;2023-01-20T21:10:39;101095.51;;;-0.93;100.00
40171;BME280;37650;52.790;18.268;2023-01-20T21:14:01;101094.01;;;-0.91;100.00
40171;BME280;37650;52.790;18.268;2023-01-20T21:17:23;101082.65;;;-0.91;100.00
40171;BME280;37650;52.790;18.268;2023-01-20T21:20:56;101083.32;;;-0.92;100.00
40171;BME280;37650;52.790;18.268;2023-01-20T21:24:18;101077.42;;;-0.94;100.00
40171;BME280;37650;52.790;18.268;2023-01-20T21:27:42;101083.66;;;-0.92;100.00
40171;BME280;37650;52.790;18.268;2023-01-20T21:31:08;101091.98;;;-0.89;100.00
40171;BME280;37650;52.790;18.268;2023-01-20T21:34:31;101092.58;;;-0.86;100.00
40171;BME280;37650;52.790;18.268;2023-01-20T21:37:53;101096.35;;;-0.87;100.00
40171;BME280;37650;52.790;18.268;2023-01-20T21:41:16;101094.46;;;-0.86;100.00
40171;BME280;37650;52.790;18.268;2023-01-20T21:44:38;101100.39;;;-0.82;100.00
40171;BME280;37650;52.790;18.268;2023-01-20T21:48:03;101107.35;;;-0.79;100.00
40171;BME280;37650;52.790;18.268;2023-01-20T21:51:45;101112.83;;;-0.80;100.00
40171;BME280;37650;52.790;18.268;2023-01-20T21:55:25;101111.27;;;-0.81;100.00
40171;BME280;37650;52.790;18.268;2023-01-20T21:58:48;101117.14;;;-0.81;100.00
40171;BME280;37650;52.790;18.268;2023-01-20T22:02:12;101112.66;;;-0.80;100.00
40171;BME280;37650;52.790;18.268;2023-01-20T22:05:37;101110.97;;;-0.78;100.00
40171;BME280;37650;52.790;18.268;2023-01-20T22:08:58;101117.77;;;-0.75;100.00
40171;BME280;37650;52.790;18.268;2023-01-20T22:12:19;101115.73;;;-0.73;100.00
40171;BME280;37650;52.790;18.268;2023-01-20T22:15:41;101108.30;;;-0.74;100.00
40171;BME280;37650;52.790;18.268;2023-01-20T22:19:02;101093.30;;;-0.75;100.00
40171;BME280;37650;52.790;18.268;2023-01-20T22:22:24;101097.10;;;-0.74;100.00
40171;BME280;37650;52.790;18.268;2023-01-20T22:25:45;101109.36;;;-0.73;100.00
40171;BME280;37650;52.790;18.268;2023-01-20T22:29:07;101095.40;;;-0.73;100.00
40171;BME280;37650;52.790;18.268;2023-01-20T22:32:28;101107.50;;;-0.72;100.00
40171;BME280;37650;52.790;18.268;2023-01-20T22:35:52;101098.55;;;-0.71;100.00
40171;BME280;37650;52.790;18.268;2023-01-20T22:39:15;101097.37;;;-0.70;100.00
40171;BME280;37650;52.790;18.268;2023-01-20T22:42:36;101102.92;;;-0.67;100.00
40171;BME280;37650;52.790;18.268;2023-01-20T22:45:58;101102.61;;;-0.66;100.00
40171;BME280;37650;52.790;18.268;2023-01-20T22:49:20;101094.80;;;-0.68;100.00
40171;BME280;37650;52.790;18.268;2023-01-20T22:52:42;101089.62;;;-0.69;100.00
40171;BME280;37650;52.790;18.268;2023-01-20T22:56:08;101091.73;;;-0.67;100.00
40171;BME280;37650;52.790;18.268;2023-01-20T22:59:30;101088.20;;;-0.63;100.00
40171;BME280;37650;52.790;18.268;2023-01-20T23:02:52;101094.59;;;-0.62;100.00
40171;BME280;37650;52.790;18.268;2023-01-20T23:06:13;101091.49;;;-0.62;100.00
40171;BME280;37650;52.790;18.268;2023-01-20T23:09:35;101095.28;;;-0.62;100.00
40171;BME280;37650;52.790;18.268;2023-01-20T23:12:56;101096.70;;;-0.60;100.00
40171;BME280;37650;52.790;18.268;2023-01-20T23:16:20;101098.11;;;-0.58;100.00
40171;BME280;37650;52.790;18.268;2023-01-20T23:19:42;101096.98;;;-0.55;100.00
40171;BME280;37650;52.790;18.268;2023-01-20T23:23:03;101092.34;;;-0.54;100.00
40171;BME280;37650;52.790;18.268;2023-01-20T23:26:27;101090.28;;;-0.53;100.00
40171;BME280;37650;52.790;18.268;2023-01-20T23:29:49;101091.66;;;-0.53;100.00
40171;BME280;37650;52.790;18.268;2023-01-20T23:33:12;101081.55;;;-0.51;100.00
40171;BME280;37650;52.790;18.268;2023-01-20T23:36:33;101077.80;;;-0.49;100.00
40171;BME280;37650;52.790;18.268;2023-01-20T23:39:54;101065.73;;;-0.48;100.00
40171;BME280;37650;52.790;18.268;2023-01-20T23:43:16;101056.74;;;-0.50;100.00
40171;BME280;37650;52.790;18.268;2023-01-20T23:46:37;101047.80;;;-0.49;100.00
40171;BME280;37650;52.790;18.268;2023-01-20T23:49:59;101048.70;;;-0.47;100.00
40171;BME280;37650;52.790;18.268;2023-01-20T23:53:21;101042.50;;;-0.46;100.00
40171;BME280;37650;52.790;18.268;2023-01-20T23:56:42;101035.08;;;-0.47;100.00
